createdAt,value
2019-02-27T00:01:10.318Z,25.25
2019-02-27T00:03:17.203Z,25.16
2019-02-27T00:05:24.635Z,25.17
2019-02-27T00:07:32.041Z,24.85
2019-02-27T00:09:39.317Z,24.97
2019-02-27T00:11:46.849Z,25.02
2019-02-27T00:13:57.635Z,25.02
2019-02-27T00:16:03.677Z,25.09
2019-02-27T00:18:11.509Z,25.06
2019-02-27T00:20:20.257Z,25.00
2019-02-27T00:22:27.773Z,25.12
2019-02-27T00:24:34.975Z,25.33
2019-02-27T00:26:42.469Z,25.52
2019-02-27T00:28:49.861Z,25.72
2019-02-27T00:30:56.603Z,25.86
2019-02-27T00:33:03.528Z,25.97
2019-02-27T00:35:10.261Z,25.99
2019-02-27T00:37:19.012Z,25.90
2019-02-27T00:39:26.313Z,26.00
2019-02-27T00:41:33.080Z,25.87
2019-02-27T00:43:39.828Z,25.77
2019-02-27T00:45:46.586Z,25.67
2019-02-27T00:47:53.842Z,25.52
2019-02-27T00:50:05.774Z,25.44
2019-02-27T00:52:09.463Z,25.36
2019-02-27T00:54:16.255Z,25.26
2019-02-27T00:56:23.038Z,25.16
2019-02-27T00:58:30.355Z,25.16
2019-02-27T01:00:39.342Z,25.08
2019-02-27T01:02:45.556Z,25.06
2019-02-27T01:04:52.790Z,25.10
2019-02-27T01:06:59.558Z,24.98
2019-02-27T01:09:07.418Z,24.96
2019-02-27T01:11:18.196Z,24.93
2019-02-27T01:13:22.981Z,24.81
2019-02-27T01:15:30.822Z,24.83
2019-02-27T01:17:38.248Z,24.72
2019-02-27T01:19:45.015Z,24.64
2019-02-27T01:21:52.293Z,24.64
2019-02-27T01:24:00.617Z,24.57
2019-02-27T01:26:07.334Z,24.48
2019-02-27T01:28:14.641Z,24.39
2019-02-27T01:30:23.889Z,24.30
2019-02-27T01:32:31.136Z,24.29
2019-02-27T01:34:38.453Z,24.27
2019-02-27T01:36:45.239Z,24.16
2019-02-27T01:38:51.989Z,23.99
2019-02-27T01:40:59.663Z,23.92
2019-02-27T01:43:06.611Z,23.88
2019-02-27T01:45:20.592Z,23.86
2019-02-27T01:47:25.590Z,23.80
2019-02-27T01:49:32.378Z,23.77
2019-02-27T01:51:39.653Z,23.77
2019-02-27T01:53:46.401Z,23.76
2019-02-27T01:55:56.234Z,23.60
2019-02-27T01:58:02.630Z,23.45
2019-02-27T02:00:09.568Z,23.38
2019-02-27T02:02:16.795Z,23.27
2019-02-27T02:04:23.529Z,23.15
2019-02-27T02:06:32.501Z,23.17
2019-02-27T02:08:39.830Z,23.24
2019-02-27T02:10:46.597Z,23.27
2019-02-27T02:12:56.791Z,23.42
2019-02-27T02:15:36.433Z,23.50
2019-02-27T02:18:17.260Z,23.45
2019-02-27T02:20:47.792Z,23.58
2019-02-27T02:23:16.050Z,23.61
2019-02-27T02:26:18.168Z,23.53
2019-02-27T02:29:12.401Z,23.57
2019-02-27T02:31:46.049Z,23.62
2019-02-27T02:34:27.341Z,23.63
2019-02-27T02:37:12.661Z,23.58
2019-02-27T02:39:44.555Z,23.43
2019-02-27T02:42:07.429Z,23.41
2019-02-27T02:44:25.115Z,23.43
2019-02-27T02:47:05.370Z,23.44
2019-02-27T02:49:42.077Z,23.38
2019-02-27T02:52:40.760Z,23.35
2019-02-27T02:55:15.051Z,23.28
2019-02-27T02:58:12.227Z,23.19
2019-02-27T03:00:57.631Z,23.03
2019-02-27T03:03:35.978Z,22.90
2019-02-27T03:06:15.072Z,22.81
2019-02-27T03:08:56.347Z,22.72
2019-02-27T03:11:45.200Z,22.69
2019-02-27T03:14:26.679Z,22.63
2019-02-27T03:17:17.891Z,22.55
2019-02-27T03:19:41.661Z,22.50
2019-02-27T03:22:05.605Z,22.45
2019-02-27T03:25:04.215Z,22.40
2019-02-27T03:27:45.244Z,22.34
2019-02-27T03:30:00.715Z,22.34
2019-02-27T03:32:18.698Z,22.34
2019-02-27T03:35:15.284Z,22.27
2019-02-27T03:37:48.569Z,22.27
2019-02-27T03:40:24.167Z,22.23
2019-02-27T03:42:51.901Z,22.28
2019-02-27T03:45:24.175Z,22.30
2019-02-27T03:47:40.463Z,22.30
2019-02-27T03:50:39.250Z,22.34
2019-02-27T03:53:10.859Z,22.48
2019-02-27T03:56:22.128Z,22.84
2019-02-27T03:58:55.734Z,23.06
2019-02-27T04:01:47.982Z,23.41
2019-02-27T04:04:13.991Z,23.65
2019-02-27T04:06:41.578Z,23.82
2019-02-27T04:09:04.353Z,23.99
2019-02-27T04:11:13.913Z,24.00
2019-02-27T04:13:26.466Z,23.86
2019-02-27T04:15:30.408Z,23.76
2019-02-27T04:17:34.026Z,23.70
2019-02-27T04:19:41.866Z,23.57
2019-02-27T04:21:48.923Z,23.53
2019-02-27T04:23:56.905Z,23.38
2019-02-27T04:26:05.746Z,23.22
2019-02-27T04:28:13.221Z,23.13
2019-02-27T04:30:20.553Z,23.08
2019-02-27T04:32:28.593Z,23.16
2019-02-27T04:34:36.787Z,23.29
2019-02-27T04:36:47.007Z,23.49
2019-02-27T04:38:53.185Z,23.67
2019-02-27T04:41:01.724Z,23.83
2019-02-27T04:43:10.138Z,23.95
2019-02-27T04:45:16.863Z,24.03
2019-02-27T04:47:28.833Z,23.96
2019-02-27T04:49:34.772Z,23.89
2019-02-27T04:51:43.097Z,23.80
2019-02-27T04:53:50.253Z,23.68
2019-02-27T04:55:57.020Z,23.54
2019-02-27T04:58:08.646Z,23.43
2019-02-27T05:00:14.459Z,23.31
2019-02-27T05:02:22.444Z,23.21
2019-02-27T05:04:34.951Z,23.14
2019-02-27T05:06:39.223Z,23.08
2019-02-27T05:08:46.629Z,23.02
2019-02-27T05:10:53.921Z,22.98
2019-02-27T05:13:01.326Z,23.04
2019-02-27T05:15:08.860Z,23.20
2019-02-27T05:17:21.166Z,23.41
2019-02-27T05:19:25.201Z,23.54
2019-02-27T05:21:31.998Z,23.71
2019-02-27T05:23:39.630Z,23.84
2019-02-27T05:25:47.512Z,23.92
2019-02-27T05:27:55.586Z,23.90
2019-02-27T05:30:02.454Z,23.76
2019-02-27T05:32:09.697Z,23.64
2019-02-27T05:34:16.592Z,23.57
2019-02-27T05:36:23.332Z,23.48
2019-02-27T05:38:30.678Z,23.41
2019-02-27T05:40:38.675Z,23.29
2019-02-27T05:42:45.573Z,23.23
2019-02-27T05:44:55.689Z,23.14
2019-02-27T05:47:02.734Z,23.08
2019-02-27T05:49:09.915Z,22.95
2019-02-27T05:51:16.674Z,22.96
2019-02-27T05:53:24.086Z,23.07
2019-02-27T05:55:31.363Z,23.18
2019-02-27T05:57:38.131Z,23.37
2019-02-27T05:59:45.431Z,23.52
2019-02-27T06:01:52.748Z,23.67
2019-02-27T06:03:59.980Z,23.84
2019-02-27T06:06:06.901Z,23.98
2019-02-27T06:08:15.404Z,24.10
2019-02-27T06:10:23.602Z,24.20
2019-02-27T06:12:30.495Z,24.13
2019-02-27T06:14:37.793Z,24.01
2019-02-27T06:16:45.012Z,23.84
2019-02-27T06:18:56.049Z,23.79
2019-02-27T06:21:01.370Z,23.67
2019-02-27T06:23:08.484Z,23.56
2019-02-27T06:25:21.962Z,23.47
2019-02-27T06:27:25.883Z,23.44
2019-02-27T06:29:33.090Z,23.37
2019-02-27T06:31:39.861Z,23.31
2019-02-27T06:33:47.151Z,23.22
2019-02-27T06:35:55.130Z,23.18
2019-02-27T06:38:01.919Z,23.12
2019-02-27T06:40:09.411Z,23.04
2019-02-27T06:42:16.725Z,22.94
2019-02-27T06:44:23.424Z,22.91
2019-02-27T06:46:30.161Z,22.86
2019-02-27T06:48:36.864Z,22.83
2019-02-27T06:50:44.078Z,22.94
2019-02-27T06:52:50.825Z,23.10
2019-02-27T06:54:57.596Z,23.32
2019-02-27T06:57:07.489Z,23.48
2019-02-27T06:59:14.027Z,23.60
2019-02-27T07:01:21.097Z,23.75
2019-02-27T07:03:29.523Z,23.83
2019-02-27T07:05:36.300Z,23.79
2019-02-27T07:07:44.389Z,23.69
2019-02-27T07:09:51.499Z,23.67
2019-02-27T07:11:59.234Z,23.48
2019-02-27T07:14:06.856Z,23.44
2019-02-27T07:16:14.188Z,23.29
2019-02-27T07:18:23.957Z,23.24
2019-02-27T07:20:30.662Z,23.17
2019-02-27T07:22:37.435Z,23.17
2019-02-27T07:24:44.558Z,23.27
2019-02-27T07:26:51.854Z,23.40
2019-02-27T07:28:58.978Z,23.56
2019-02-27T07:31:05.733Z,23.69
2019-02-27T07:33:13.093Z,23.83
2019-02-27T07:35:20.287Z,23.90
2019-02-27T07:37:27.035Z,23.97
2019-02-27T07:39:34.847Z,24.12
2019-02-27T07:41:42.061Z,24.21
2019-02-27T07:43:48.803Z,24.17
2019-02-27T07:45:56.627Z,24.10
2019-02-27T07:48:03.818Z,23.96
2019-02-27T07:50:12.953Z,23.82
2019-02-27T07:52:20.826Z,23.75
2019-02-27T07:54:29.002Z,23.67
2019-02-27T07:56:37.427Z,23.58
2019-02-27T07:58:44.195Z,23.46
2019-02-27T08:00:50.981Z,23.41
2019-02-27T08:02:58.566Z,23.32
2019-02-27T08:05:06.909Z,23.26
2019-02-27T08:07:13.653Z,23.18
2019-02-27T08:09:20.397Z,23.07
2019-02-27T08:11:27.770Z,23.00
2019-02-27T08:13:34.475Z,22.96
2019-02-27T08:15:41.438Z,22.90
2019-02-27T08:17:48.766Z,22.89
2019-02-27T08:19:55.483Z,22.78
2019-02-27T08:22:02.754Z,22.79
2019-02-27T08:24:09.539Z,22.76
2019-02-27T08:26:18.278Z,22.76
2019-02-27T08:28:24.706Z,22.80
2019-02-27T08:30:31.522Z,22.93
2019-02-27T08:32:38.585Z,23.10
2019-02-27T08:34:46.214Z,23.29
2019-02-27T08:36:53.354Z,23.49
2019-02-27T08:39:00.022Z,23.65
2019-02-27T08:41:06.721Z,23.78
2019-02-27T08:43:14.026Z,23.75
2019-02-27T08:45:20.928Z,23.64
2019-02-27T08:47:28.086Z,23.54
2019-02-27T08:49:34.916Z,23.47
2019-02-27T08:51:42.731Z,23.41
2019-02-27T08:53:49.401Z,23.28
2019-02-27T08:55:56.539Z,23.18
2019-02-27T08:58:03.274Z,23.08
2019-02-27T09:00:14.439Z,23.05
2019-02-27T09:02:24.149Z,22.97
2019-02-27T09:04:30.371Z,22.89
2019-02-27T09:06:37.562Z,22.80
2019-02-27T09:08:45.036Z,22.75
2019-02-27T09:10:52.300Z,22.77
2019-02-27T09:13:05.359Z,22.84
2019-02-27T09:15:08.242Z,22.90
2019-02-27T09:17:16.559Z,23.12
2019-02-27T09:19:23.325Z,23.33
2019-02-27T09:21:30.660Z,23.44
2019-02-27T09:23:38.189Z,23.56
2019-02-27T09:25:45.526Z,23.67
2019-02-27T09:27:52.954Z,23.73
2019-02-27T09:29:59.661Z,23.82
2019-02-27T09:32:09.282Z,23.84
2019-02-27T09:34:16.298Z,23.92
2019-02-27T09:36:23.487Z,24.01
2019-02-27T09:38:30.806Z,23.98
2019-02-27T09:40:38.913Z,23.88
2019-02-27T09:42:46.116Z,23.77
2019-02-27T09:44:54.420Z,23.74
2019-02-27T09:47:01.159Z,23.64
2019-02-27T09:49:08.238Z,23.56
2019-02-27T09:51:15.899Z,23.42
2019-02-27T09:53:22.663Z,23.30
2019-02-27T09:55:29.375Z,23.16
2019-02-27T09:57:36.773Z,23.07
2019-02-27T09:59:44.873Z,23.02
2019-02-27T10:01:51.781Z,22.96
2019-02-27T10:03:58.557Z,22.91
2019-02-27T10:06:08.720Z,22.86
2019-02-27T10:08:14.899Z,22.78
2019-02-27T10:10:21.987Z,22.79
2019-02-27T10:12:28.894Z,22.85
2019-02-27T10:14:35.953Z,22.88
2019-02-27T10:16:43.849Z,23.09
2019-02-27T10:18:54.684Z,23.27
2019-02-27T10:20:59.846Z,23.43
2019-02-27T10:23:06.811Z,23.54
2019-02-27T10:25:14.253Z,23.65
2019-02-27T10:27:20.997Z,23.61
2019-02-27T10:29:28.258Z,23.51
2019-02-27T10:31:35.068Z,23.45
2019-02-27T10:33:42.998Z,23.42
2019-02-27T10:35:50.830Z,23.45
2019-02-27T10:37:57.899Z,23.23
2019-02-27T10:40:04.799Z,23.07
2019-02-27T10:42:11.598Z,22.98
2019-02-27T10:44:18.354Z,22.88
2019-02-27T10:46:25.497Z,22.85
2019-02-27T10:48:32.242Z,22.75
2019-02-27T10:50:39.025Z,22.69
2019-02-27T10:52:45.768Z,22.71
2019-02-27T10:54:52.490Z,22.57
2019-02-27T10:56:59.275Z,22.99
2019-02-27T10:59:06.061Z,23.20
2019-02-27T11:01:13.426Z,23.38
2019-02-27T11:03:23.656Z,23.55
2019-02-27T11:05:31.530Z,23.67
2019-02-27T11:07:39.092Z,23.60
2019-02-27T11:09:45.893Z,23.61
2019-02-27T11:11:53.937Z,23.53
2019-02-27T11:14:01.842Z,23.42
2019-02-27T11:16:09.693Z,22.34
2019-02-27T11:18:16.403Z,23.32
2019-02-27T11:20:24.676Z,23.22
2019-02-27T11:22:32.381Z,23.10
2019-02-27T11:24:39.631Z,22.99
2019-02-27T11:26:47.033Z,22.89
2019-02-27T11:28:54.331Z,22.88
2019-02-27T11:31:01.183Z,22.83
2019-02-27T11:33:08.321Z,22.76
2019-02-27T11:35:16.392Z,22.72
2019-02-27T11:37:23.130Z,22.67
2019-02-27T11:39:32.930Z,22.77
2019-02-27T11:41:39.811Z,22.85
2019-02-27T11:43:46.548Z,23.08
2019-02-27T11:45:57.815Z,23.22
2019-02-27T11:48:04.324Z,23.35
2019-02-27T11:50:14.703Z,23.44
2019-02-27T11:52:22.588Z,23.60
2019-02-27T11:54:29.350Z,23.71
2019-02-27T11:56:36.098Z,23.79
2019-02-27T11:58:43.933Z,23.87
2019-02-27T12:00:51.774Z,23.81
2019-02-27T12:02:58.976Z,23.87
2019-02-27T12:05:05.845Z,23.93
2019-02-27T12:07:17.209Z,23.89
2019-02-27T12:09:21.489Z,23.87
2019-02-27T12:11:28.617Z,23.83
2019-02-27T12:13:35.578Z,23.76
2019-02-27T12:15:44.183Z,23.64
2019-02-27T12:17:51.136Z,23.56
2019-02-27T12:19:58.084Z,23.46
2019-02-27T12:22:05.552Z,23.37
2019-02-27T12:24:13.458Z,23.30
2019-02-27T12:26:20.730Z,23.24
2019-02-27T12:28:28.032Z,23.19
2019-02-27T12:30:37.344Z,23.14
2019-02-27T12:32:44.471Z,23.11
2019-02-27T12:34:51.902Z,23.21
2019-02-27T12:36:58.652Z,23.40
2019-02-27T12:39:06.508Z,23.49
2019-02-27T12:41:14.459Z,23.68
2019-02-27T12:43:21.387Z,23.78
2019-02-27T12:45:29.691Z,23.86
2019-02-27T12:47:40.689Z,24.00
2019-02-27T12:49:47.126Z,24.08
2019-02-27T12:51:54.412Z,24.21
2019-02-27T12:54:01.187Z,24.29
2019-02-27T12:56:10.770Z,24.34
2019-02-27T12:58:18.120Z,24.34
2019-02-27T13:00:27.263Z,24.42
2019-02-27T13:02:35.802Z,24.46
2019-02-27T13:04:43.031Z,24.62
2019-02-27T13:06:49.781Z,24.76
2019-02-27T13:08:57.870Z,24.90
2019-02-27T13:11:05.317Z,24.97
2019-02-27T13:13:13.814Z,25.08
2019-02-27T13:15:21.965Z,25.13
2019-02-27T13:17:28.736Z,25.23
2019-02-27T13:19:38.502Z,25.31
2019-02-27T13:21:45.189Z,25.40
2019-02-27T13:23:52.014Z,25.40
2019-02-27T13:26:00.428Z,25.37
2019-02-27T13:28:07.888Z,25.19
2019-02-27T13:30:17.329Z,25.16
2019-02-27T13:32:26.555Z,25.04
2019-02-27T13:34:32.514Z,24.87
2019-02-27T13:36:40.001Z,24.77
2019-02-27T13:38:49.520Z,24.61
2019-02-27T13:40:55.764Z,24.56
2019-02-27T13:43:03.538Z,24.47
2019-02-27T13:45:13.471Z,24.40
2019-02-27T13:47:20.860Z,24.34
2019-02-27T13:49:28.439Z,24.29
2019-02-27T13:51:37.258Z,24.19
2019-02-27T13:53:44.872Z,24.13
2019-02-27T13:55:53.675Z,24.10
2019-02-27T13:58:03.740Z,24.20
2019-02-27T14:00:20.316Z,24.40
2019-02-27T14:02:25.865Z,24.56
2019-02-27T14:04:34.843Z,24.70
2019-02-27T14:06:43.497Z,24.86
2019-02-27T14:08:53.087Z,24.98
2019-02-27T14:11:02.803Z,24.85
2019-02-27T14:13:11.194Z,24.72
2019-02-27T14:15:19.631Z,24.70
2019-02-27T14:17:28.610Z,24.62
2019-02-27T14:19:38.860Z,24.54
2019-02-27T14:21:46.539Z,24.45
2019-02-27T14:23:54.960Z,24.42
2019-02-27T14:26:05.558Z,24.36
2019-02-27T14:28:12.072Z,24.28
2019-02-27T14:30:35.658Z,24.20
2019-02-27T14:32:47.350Z,24.13
2019-02-27T14:34:54.596Z,24.15
2019-02-27T14:37:01.900Z,24.32
2019-02-27T14:39:10.444Z,24.48
2019-02-27T14:41:17.769Z,24.57
2019-02-27T14:43:27.391Z,24.82
2019-02-27T14:45:34.111Z,25.02
2019-02-27T14:47:47.336Z,25.18
2019-02-27T18:00:44.271Z,21.19
2019-02-27T18:02:53.071Z,21.44
2019-02-27T18:05:00.976Z,21.81
2019-02-27T18:07:14.278Z,22.23
2019-02-27T18:09:29.542Z,22.61
2019-02-27T18:11:39.845Z,22.98
2019-02-27T18:14:03.085Z,23.33
2019-02-27T18:16:12.607Z,23.70
2019-02-27T18:18:58.852Z,24.04
2019-02-27T18:21:13.383Z,24.35
2019-02-27T18:23:31.516Z,24.58
2019-02-27T18:25:42.058Z,24.55
2019-02-27T18:27:58.659Z,24.55
2019-02-27T18:30:02.977Z,24.67
2019-02-27T18:32:13.480Z,24.68
2019-02-27T18:34:23.460Z,24.71
2019-02-27T18:37:04.274Z,24.67
2019-02-27T18:39:14.471Z,24.64
2019-02-27T18:41:31.036Z,24.66
2019-02-27T18:44:08.085Z,24.63
2019-02-27T18:46:15.636Z,24.60
2019-02-27T18:49:38.297Z,24.49
2019-02-27T18:53:15.546Z,24.71
2019-02-27T18:55:31.411Z,24.74
2019-02-27T18:57:47.784Z,24.93
2019-02-27T19:00:08.167Z,25.15
2019-02-27T19:02:27.227Z,25.32
2019-02-27T19:04:37.732Z,25.48
2019-02-27T19:06:47.012Z,25.76
2019-02-27T19:08:55.423Z,25.92
2019-02-27T19:11:03.046Z,25.95
2019-02-27T19:13:10.238Z,25.98
2019-02-27T19:15:19.539Z,25.89
2019-02-27T19:17:31.509Z,25.85
2019-02-27T19:19:48.180Z,25.77
2019-02-27T19:21:53.659Z,25.79
2019-02-27T19:24:00.981Z,25.78
2019-02-27T19:26:21.109Z,25.74
2019-02-27T19:28:31.070Z,25.72
2019-02-27T19:30:44.052Z,25.69
2019-02-27T19:32:51.641Z,25.62
2019-02-27T19:35:00.244Z,25.53
2019-02-27T19:37:10.151Z,25.59
2019-02-27T19:39:21.732Z,25.57
2019-02-27T19:41:38.722Z,25.60
2019-02-27T19:43:54.950Z,25.45
2019-02-27T19:46:01.004Z,25.35
2019-02-27T19:48:09.885Z,25.38
2019-02-27T19:50:18.346Z,25.42
2019-02-27T19:52:26.958Z,25.37
2019-02-27T19:54:41.593Z,25.29
2019-02-27T19:56:48.857Z,25.36
2019-02-27T19:58:59.354Z,25.37
2019-02-27T20:01:09.086Z,25.39
2019-02-27T20:03:16.788Z,25.40
2019-02-27T20:05:24.335Z,25.34
2019-02-27T20:07:32.941Z,25.43
2019-02-27T20:09:41.617Z,25.56
2019-02-27T20:11:49.352Z,25.75
2019-02-27T20:14:01.949Z,25.91
2019-02-27T20:16:06.903Z,26.07
2019-02-27T20:18:14.354Z,26.15
2019-02-27T20:20:22.884Z,26.22
2019-02-27T20:22:29.932Z,26.33
2019-02-27T20:24:38.444Z,26.35
2019-02-27T20:26:45.838Z,26.30
2019-02-27T20:28:53.882Z,26.24
2019-02-27T20:31:01.789Z,26.09
2019-02-27T20:33:09.684Z,26.03
2019-02-27T20:35:17.334Z,25.90
2019-02-27T20:37:27.063Z,25.85
2019-02-27T20:39:35.941Z,25.76
2019-02-27T20:41:44.093Z,25.67
2019-02-27T20:43:51.330Z,25.56
2019-02-27T20:45:58.693Z,25.44
2019-02-27T20:48:06.534Z,25.33
2019-02-27T20:50:21.838Z,25.30
2019-02-27T20:52:29.078Z,25.20
2019-02-27T20:54:37.719Z,25.15
2019-02-27T20:56:45.217Z,25.09
2019-02-27T20:58:54.302Z,25.02
2019-02-27T21:01:01.326Z,24.96
2019-02-27T21:03:08.993Z,25.00
2019-02-27T21:05:16.447Z,25.14
2019-02-27T21:07:26.101Z,25.22
2019-02-27T21:09:33.349Z,25.34
2019-02-27T21:11:41.086Z,25.43
2019-02-27T21:13:49.607Z,25.62
2019-02-27T21:15:57.170Z,25.76
2019-02-27T21:18:05.782Z,25.85
2019-02-27T21:20:14.313Z,25.84
2019-02-27T21:22:25.256Z,25.78
2019-02-27T21:24:31.694Z,25.75
2019-02-27T21:26:39.636Z,25.67
2019-02-27T21:28:57.744Z,25.64
2019-02-27T21:30:55.760Z,25.61
2019-02-27T21:33:02.993Z,25.55
2019-02-27T21:35:10.297Z,25.46
2019-02-27T21:37:18.578Z,25.41
2019-02-27T21:39:28.348Z,25.38
2019-02-27T21:41:35.680Z,25.23
2019-02-27T21:43:43.145Z,25.10
2019-02-27T21:45:51.199Z,25.12
2019-02-27T21:47:59.153Z,25.03
2019-02-27T21:50:07.263Z,25.03
2019-02-27T21:52:22.423Z,24.99
2019-02-27T21:54:29.502Z,24.92
2019-02-27T21:56:39.438Z,24.91
2019-02-27T21:58:46.735Z,24.93
2019-02-27T22:00:53.932Z,24.97
2019-02-27T22:03:05.008Z,24.86
2019-02-27T22:05:11.023Z,24.86
2019-02-27T22:07:18.434Z,24.84
2019-02-27T22:09:27.118Z,24.78
2019-02-27T22:11:34.872Z,24.73
2019-02-27T22:13:44.953Z,24.75
2019-02-27T22:15:55.772Z,24.72
2019-02-27T22:18:01.895Z,24.63
2019-02-27T22:20:09.734Z,24.64
2019-02-27T22:22:17.248Z,24.72
2019-02-27T22:24:25.128Z,25.03
2019-02-27T22:26:34.170Z,25.24
2019-02-27T22:28:42.048Z,25.53
2019-02-27T22:30:49.267Z,25.80
2019-02-27T22:32:58.033Z,25.95
2019-02-27T22:35:06.358Z,26.12
2019-02-27T22:37:17.482Z,26.08
2019-02-27T22:39:24.352Z,25.94
2019-02-27T22:41:31.435Z,25.93
2019-02-27T22:43:38.708Z,25.82
2019-02-27T22:45:47.148Z,25.73
2019-02-27T22:47:54.707Z,25.64
2019-02-27T22:50:05.866Z,25.53
2019-02-27T22:52:11.675Z,25.53
2019-02-27T22:54:19.341Z,25.50
2019-02-27T22:56:26.662Z,25.35
2019-02-27T22:58:33.883Z,25.19
2019-02-27T23:01:05.016Z,25.15
2019-02-27T23:03:12.399Z,25.11
2019-02-27T23:05:19.702Z,24.98
2019-02-27T23:07:27.338Z,24.90
2019-02-27T23:09:36.844Z,24.83
2019-02-27T23:11:43.757Z,24.78
2019-02-27T23:13:52.250Z,24.77
2019-02-27T23:15:59.449Z,24.92
2019-02-27T23:18:07.025Z,25.08
2019-02-27T23:20:17.547Z,25.26
2019-02-27T23:22:25.282Z,25.39
2019-02-27T23:24:33.503Z,25.50
2019-02-27T23:26:40.568Z,25.67
2019-02-27T23:28:49.679Z,25.81
2019-02-27T23:30:57.634Z,25.85
2019-02-27T23:33:05.781Z,25.84
2019-02-27T23:35:16.726Z,25.73
2019-02-27T23:37:23.328Z,25.64
2019-02-27T23:39:30.686Z,25.47
2019-02-27T23:41:38.036Z,25.39
2019-02-27T23:43:45.443Z,25.24
2019-02-27T23:45:54.745Z,25.25
2019-02-27T23:48:03.935Z,25.28
2019-02-27T23:50:11.925Z,25.10
2019-02-27T23:52:24.063Z,24.97
2019-02-27T23:54:35.413Z,24.90
2019-02-27T23:56:41.051Z,24.96
2019-02-27T23:58:48.597Z,24.97
